Bedrock, Colorado
Current Conditions -  °F | °C
As of 7:55 AM on Monday 24 Nov 2014 (Local Time) from KAIB Reporting Station
Broken Clouds Broken Clouds  
Wind Chill: 17°   Ceiling: 8000
Heat Index: 25°   Visibility: 10mi
Dew Point: 16°   Wind: 7mph
Humidity: 69%   Direction: 120°ESE
Pressure: 30.21"   Gusts: NA
Location:  38.31°N, 108.89°W
Report Text: KAIB 241455Z AUTO 12006KT 10SM SCT065 BKN080 BKN110 M04/M09 A3021 RMK AO2
Loading
Personal Weather Stations






























Interactive Weather Map New forecast layout! Learn more

10-Day Weather Forecast

Advertisements
Track Severe Weather on mobile